Subpeak Weather

  • Time Avg. Air Temp Dew Point Avg. Rel Humidity Avg. 2 Min Wind Speed Max Gust Velocity MGV Time MGV Direction Avg. Spot Wind Velocity
    2021-10-26 11:15:00-4° C-4° C100%9 km/h13 km/h11:12:00SE9 km/h
    10:15:00-5° C-5° C99%16 km/h24 km/h10:12:00S16 km/h
    09:15:00-5° C-5° C99%24 km/h28 km/h09:13:00SW25 km/h
    08:15:00-4° C-4° C100%18 km/h24 km/h08:12:00S18 km/h
    07:15:00-4° C-4° C100%17 km/h23 km/h07:11:00S18 km/h
    06:15:00-4° C-4° C100%15 km/h16 km/h06:14:00S14 km/h
    05:15:00-4° C-4° C100%15 km/h19 km/h05:11:00S16 km/h
    04:15:00-4° C-4° C100%26 km/h29 km/h04:15:00S27 km/h
    03:15:00-4° C-4° C100%27 km/h30 km/h03:12:00S26 km/h
    02:15:00-4° C-4° C100%21 km/h23 km/h02:15:00S20 km/h
    01:15:00-4° C-4° C100%24 km/h28 km/h01:14:00S23 km/h
    00:15:00-4° C-4° C100%28 km/h33 km/h00:14:00S23 km/h
    23:15:00-4° C-4° C100%23 km/h31 km/h23:11:00S23 km/h
    22:15:00-4° C-4° C100%26 km/h36 km/h22:11:00SE25 km/h
    21:15:00-4° C-4° C100%18 km/h37 km/h21:13:00SE23 km/h
    20:15:00-4° C-4° C100%29 km/h47 km/h20:14:00SE27 km/h
    19:15:00-4° C-5° C99%23 km/h44 km/h19:13:00SE21 km/h
    18:15:00-4° C-4° C100%29 km/h37 km/h18:14:00S27 km/h
    17:15:00-5° C-5° C99%37 km/h47 km/h17:14:00SE36 km/h
    16:15:00-5° C-4° C99%22 km/h30 km/h16:14:00SE20 km/h
    15:15:00-4° C-5° C99%22 km/h28 km/h15:12:00SE19 km/h
    14:15:00-4° C-4° C100%16 km/h23 km/h14:12:00SE14 km/h
    13:15:00-4° C-4° C100%16 km/h20 km/h13:11:00SE14 km/h
    12:15:00-5° C-5° C99%15 km/h20 km/h12:15:00S15 km/h
  • Time Avg. Air Temp Dew Point Avg. Rel Humidity Avg. 2 Min Wind Speed Max Gust Velocity MGV Time MGV Direction Avg. Spot Wind Velocity
    2021-10-26 11:15:00-4° C-4° C100%9 km/h13 km/h11:12:00SE9 km/h
    11:10:00-4° C-4° C100%10 km/h15 km/h11:08:00S10 km/h
    11:05:00-4° C-4° C99%10 km/h13 km/h11:03:00S10 km/h
    11:00:00-4° C-4° C99%10 km/h13 km/h10:57:00S10 km/h
    10:55:00-4° C-4° C99%6 km/h9 km/h10:51:00S7 km/h
    10:50:00-4° C-4° C99%9 km/h13 km/h10:47:00S10 km/h
    10:45:00-4° C-4° C99%10 km/h14 km/h10:42:00S12 km/h
    10:40:00-4° C-5° C99%14 km/h15 km/h10:40:00S12 km/h
    10:35:00-4° C-5° C99%14 km/h16 km/h10:32:00S14 km/h
    10:30:00-5° C-5° C99%17 km/h22 km/h10:26:00S18 km/h
    10:25:00-5° C-5° C99%15 km/h21 km/h10:23:00S16 km/h
    10:20:00-5° C-5° C99%15 km/h20 km/h10:16:00S15 km/h
    10:15:00-5° C-5° C99%16 km/h24 km/h10:12:00S16 km/h

Explore More

Get Revelstoke news, offers, and events via email.